Time;durP1;ratioP1;P1;durP2;ratioP2;P2;SDS_P1;SDS_P2;PMS_P1;PMS_P2;Temp;Humidity;BMP_temperature;BMP_pressure;BME280_temperature;BME280_humidity;BME280_pressure;Samples;Min_cycle;Max_cycle;Signal;HPM_P1;HPM_P2
2023/11/23 00:02:17;;;;;;;12.60;6.65;;;;;;;-0.95;100.00;100045.06;4999911;28;20026;-76
2023/11/23 00:04:43;;;;;;;13.25;6.43;;;;;;;-0.90;100.00;100047.41;5009857;28;20017;-76
2023/11/23 00:07:08;;;;;;;17.52;7.15;;;;;;;-0.88;100.00;100035.75;5023987;28;20018;-76
2023/11/23 00:09:33;;;;;;;15.95;7.72;;;;;;;-1.10;100.00;100006.25;5024835;28;20040;-76
2023/11/23 00:11:59;;;;;;;19.38;8.00;;;;;;;-1.19;100.00;99975.81;5023279;28;20120;-76
2023/11/23 00:14:25;;;;;;;16.35;7.15;;;;;;;-1.10;100.00;99971.72;5018865;28;20022;-76
2023/11/23 00:16:50;;;;;;;17.42;7.60;;;;;;;-1.09;100.00;100010.59;5023755;28;20338;-76
2023/11/23 00:19:16;;;;;;;18.48;7.20;;;;;;;-1.09;100.00;100017.72;5026102;28;20013;-76
2023/11/23 00:21:41;;;;;;;17.25;7.68;;;;;;;-1.15;100.00;100009.19;5027469;28;20024;-76
2023/11/23 00:24:07;;;;;;;17.55;7.18;;;;;;;-1.07;100.00;100008.69;5024526;28;20028;-76
2023/11/23 00:26:33;;;;;;;15.25;7.78;;;;;;;-1.16;100.00;100002.16;5022945;28;20283;-75
2023/11/23 00:28:59;;;;;;;16.27;7.90;;;;;;;-1.18;100.00;99976.66;5034596;28;20088;-76
2023/11/23 00:31:24;;;;;;;15.82;7.57;;;;;;;-1.08;100.00;99993.69;5013944;28;20027;-76
2023/11/23 00:33:50;;;;;;;16.75;7.05;;;;;;;-0.93;100.00;100005.13;5004900;28;20065;-75
2023/11/23 00:36:15;;;;;;;15.95;7.53;;;;;;;-0.86;100.00;100011.75;5003233;28;20040;-76
2023/11/23 00:38:41;;;;;;;16.77;7.68;;;;;;;-1.00;100.00;99980.75;5021094;28;20022;-76
2023/11/23 00:41:07;;;;;;;15.85;7.18;;;;;;;-0.85;100.00;99994.00;5005089;28;20022;-76
2023/11/23 00:43:33;;;;;;;16.45;8.43;;;;;;;-0.89;100.00;99980.06;4987784;28;20021;-76
2023/11/23 00:45:59;;;;;;;17.33;8.25;;;;;;;-0.70;100.00;99991.16;5026276;28;20084;-76
2023/11/23 00:48:24;;;;;;;17.52;9.25;;;;;;;-0.59;100.00;100003.75;5029975;28;20021;-76
2023/11/23 00:50:50;;;;;;;21.20;10.07;;;;;;;-0.63;100.00;99990.75;5075803;22;20087;-76
2023/11/23 00:53:15;;;;;;;22.30;9.48;;;;;;;-0.64;100.00;99984.59;5040421;28;20109;-75
2023/11/23 00:55:40;;;;;;;18.23;8.32;;;;;;;-0.51;100.00;99995.25;5048561;28;20227;-75
2023/11/23 00:58:06;;;;;;;19.20;9.27;;;;;;;-0.51;100.00;99989.94;5073654;28;20063;-76
2023/11/23 01:00:31;;;;;;;17.25;7.75;;;;;;;-0.34;100.00;99994.97;5049909;28;20022;-75
2023/11/23 01:02:57;;;;;;;17.02;8.10;;;;;;;-0.31;100.00;99989.44;5051688;28;20025;-76
2023/11/23 01:05:22;;;;;;;15.93;7.38;;;;;;;-0.23;100.00;100010.19;5034997;28;20021;-76
2023/11/23 01:07:47;;;;;;;16.55;7.30;;;;;;;-0.31;100.00;99992.09;5043239;28;20029;-76
2023/11/23 01:10:13;;;;;;;21.30;8.52;;;;;;;-0.22;100.00;100003.91;5046123;28;20092;-76
2023/11/23 01:12:38;;;;;;;19.48;8.25;;;;;;;-0.23;100.00;100007.53;5056547;28;20033;-75
2023/11/23 01:15:04;;;;;;;15.60;8.00;;;;;;;-0.10;100.00;100012.88;5045551;28;20025;-76
2023/11/23 01:17:29;;;;;;;13.95;7.75;;;;;;;-0.08;100.00;100010.94;5051551;28;20033;-75
2023/11/23 01:19:55;;;;;;;20.40;8.50;;;;;;;0.04;100.00;100018.06;5035779;28;20230;-76
2023/11/23 01:22:20;;;;;;;17.75;8.45;;;;;;;-0.03;100.00;100014.13;5052869;28;20043;-75
2023/11/23 01:24:45;;;;;;;21.70;9.13;;;;;;;-0.07;100.00;100005.50;5059542;28;20025;-75
2023/11/23 01:27:11;;;;;;;15.05;8.32;;;;;;;-0.09;100.00;100003.91;5039143;28;20055;-75
2023/11/23 01:29:36;;;;;;;16.95;8.40;;;;;;;-0.06;100.00;100006.34;5019337;28;20049;-76
2023/11/23 01:32:01;;;;;;;16.48;8.13;;;;;;;-0.06;100.00;100001.03;5042593;28;20095;-75
2023/11/23 01:34:27;;;;;;;18.55;8.98;;;;;;;-0.02;100.00;100014.03;5046544;28;20030;-75
2023/11/23 01:36:52;;;;;;;20.50;9.50;;;;;;;-0.07;100.00;99999.34;5024995;28;20047;-75
2023/11/23 01:39:17;;;;;;;18.63;8.55;;;;;;;-0.12;100.00;99990.84;5027146;28;20032;-75
2023/11/23 01:41:43;;;;;;;17.83;8.55;;;;;;;-0.16;100.00;99978.69;5043691;28;20040;-75
2023/11/23 01:44:10;;;;;;;16.13;8.05;;;;;;;-0.15;100.00;99975.09;5043904;28;20022;-75
2023/11/23 01:46:35;;;;;;;16.73;8.77;;;;;;;-0.17;100.00;99963.69;5049298;28;20095;-75
2023/11/23 01:49:03;;;;;;;20.20;9.23;;;;;;;-0.19;100.00;99955.81;5051968;28;20021;-75
2023/11/23 01:51:28;;;;;;;17.23;7.88;;;;;;;-0.26;100.00;99958.06;5044993;28;20199;-75
2023/11/23 01:53:54;;;;;;;17.42;8.63;;;;;;;-0.27;100.00;99952.84;5028927;28;20028;-75
2023/11/23 01:56:21;;;;;;;17.38;8.25;;;;;;;-0.35;100.00;99956.03;5047823;28;20318;-75
2023/11/23 01:58:47;;;;;;;16.42;8.45;;;;;;;-0.40;100.00;99952.81;5052506;28;20032;-75
2023/11/23 02:01:13;;;;;;;21.40;9.52;;;;;;;-0.41;100.00;99945.81;5037930;28;20018;-75
2023/11/23 02:03:39;;;;;;;17.30;9.07;;;;;;;-0.42;100.00;99952.06;5051868;28;20045;-76
2023/11/23 02:06:04;;;;;;;18.75;9.38;;;;;;;-0.42;100.00;99945.91;5054530;28;20096;-75
2023/11/23 02:08:30;;;;;;;20.15;9.45;;;;;;;-0.42;100.00;99941.44;5054163;28;20018;-76
2023/11/23 02:10:56;;;;;;;22.40;10.05;;;;;;;-0.40;100.00;99931.56;5058497;28;20085;-75
2023/11/23 02:13:22;;;;;;;20.92;9.02;;;;;;;-0.29;100.00;99942.31;5055794;28;20048;-76
2023/11/23 02:15:47;;;;;;;20.17;10.05;;;;;;;-0.26;100.00;99946.59;5055268;28;20018;-76
2023/11/23 02:18:13;;;;;;;20.85;9.90;;;;;;;-0.22;100.00;99951.56;5053891;28;20086;-76
2023/11/23 02:20:39;;;;;;;20.08;9.98;;;;;;;-0.03;100.00;99952.94;5034217;28;20017;-76
2023/11/23 02:23:04;;;;;;;19.08;9.10;;;;;;;-0.04;100.00;99953.91;5060234;28;20017;-76
2023/11/23 02:25:29;;;;;;;17.40;9.00;;;;;;;-0.16;100.00;99929.00;5056379;28;20028;-76
2023/11/23 02:27:55;;;;;;;18.30;9.40;;;;;;;-0.09;100.00;99938.25;5059030;28;20068;-76
2023/11/23 02:30:21;;;;;;;18.52;8.50;;;;;;;-0.01;100.00;99935.06;5053696;28;20025;-76
2023/11/23 02:32:47;;;;;;;18.02;9.00;;;;;;;-0.02;100.00;99933.38;5058808;28;20135;-75
2023/11/23 02:35:13;;;;;;;17.60;9.13;;;;;;;-0.06;100.00;99930.06;5047095;28;20082;-75
2023/11/23 02:37:41;;;;;;;14.85;7.65;;;;;;;-0.16;100.00;99936.13;5042977;28;20017;-75
2023/11/23 02:40:08;;;;;;;15.40;6.57;;;;;;;-0.23;100.00;99933.91;5061422;28;20048;-76
2023/11/23 02:42:33;;;;;;;14.55;7.47;;;;;;;-0.30;100.00;99934.44;5047913;28;20029;-75
2023/11/23 02:44:59;;;;;;;17.10;8.73;;;;;;;-0.36;100.00;99930.41;5064222;28;20051;-76
2023/11/23 02:47:24;;;;;;;18.63;9.02;;;;;;;-0.35;100.00;99934.75;5063254;28;20087;-76
2023/11/23 02:49:49;;;;;;;19.38;8.45;;;;;;;-0.42;100.00;99925.50;5071016;28;20052;-76
2023/11/23 02:52:15;;;;;;;19.75;9.85;;;;;;;-0.51;100.00;99932.31;5058798;28;20048;-76
2023/11/23 02:54:40;;;;;;;21.23;9.75;;;;;;;-0.62;100.00;99948.13;5059028;28;20013;-76
2023/11/23 02:57:05;;;;;;;20.25;10.05;;;;;;;-0.67;100.00;99943.13;5057511;28;20028;-76
2023/11/23 02:59:31;;;;;;;21.13;9.23;;;;;;;-0.79;100.00;99954.56;5058024;28;20029;-76
2023/11/23 03:01:56;;;;;;;21.38;9.48;;;;;;;-0.87;100.00;99940.94;5057638;28;20025;-76
2023/11/23 03:04:21;;;;;;;24.92;10.02;;;;;;;-0.70;100.00;99959.28;5040957;28;20021;-76
2023/11/23 03:06:47;;;;;;;25.27;9.77;;;;;;;-0.71;100.00;99946.97;5058668;28;20052;-76
2023/11/23 03:09:12;;;;;;;21.65;9.20;;;;;;;-0.71;100.00;99951.41;5050138;28;20083;-76
2023/11/23 03:11:38;;;;;;;19.77;9.05;;;;;;;-0.74;100.00;99959.59;5044152;28;20091;-76
2023/11/23 03:14:04;;;;;;;19.98;9.30;;;;;;;-0.82;100.00;99948.63;5045006;28;20020;-76
2023/11/23 03:16:30;;;;;;;24.33;10.00;;;;;;;-0.88;100.00;99934.78;5045413;28;20021;-76
2023/11/23 03:18:56;;;;;;;20.60;9.32;;;;;;;-0.90;100.00;99941.16;5028107;28;20068;-75
2023/11/23 03:21:23;;;;;;;18.52;8.98;;;;;;;-0.95;100.00;99943.28;5027499;28;20013;-76
2023/11/23 03:23:48;;;;;;;21.50;10.02;;;;;;;-1.00;100.00;99963.97;5033569;28;20245;-76
2023/11/23 03:26:14;;;;;;;21.00;9.40;;;;;;;-1.09;100.00;99957.47;5043795;28;20017;-76
2023/11/23 03:28:39;;;;;;;21.35;8.93;;;;;;;-1.19;100.00;99945.75;5045143;28;20018;-76
2023/11/23 03:31:06;;;;;;;22.55;9.80;;;;;;;-1.20;100.00;99958.19;5041541;28;20021;-76
2023/11/23 03:33:32;;;;;;;19.90;8.77;;;;;;;-1.24;100.00;99955.81;5044037;28;20021;-76
2023/11/23 03:35:57;;;;;;;19.35;9.40;;;;;;;-1.33;100.00;99966.09;5043828;28;20014;-77
2023/11/23 03:38:23;;;;;;;20.80;9.18;;;;;;;-1.40;100.00;99961.28;5045013;28;20079;-76
2023/11/23 03:40:48;;;;;;;24.15;9.60;;;;;;;-1.35;100.00;99951.22;5038908;28;20020;-76
2023/11/23 03:43:14;;;;;;;20.80;10.32;;;;;;;-1.23;100.00;99960.16;5044948;28;20017;-76
2023/11/23 03:45:39;;;;;;;21.95;9.15;;;;;;;-1.15;100.00;99963.19;5044423;28;20013;-76
2023/11/23 03:48:05;;;;;;;20.80;9.25;;;;;;;-1.12;100.00;99958.53;5043644;28;20101;-76
2023/11/23 03:50:31;;;;;;;25.10;11.13;;;;;;;-1.12;100.00;99955.88;5043212;28;20067;-76
2023/11/23 03:52:56;;;;;;;21.95;9.90;;;;;;;-1.16;100.00;99951.69;5042820;28;20092;-76
2023/11/23 03:55:22;;;;;;;21.77;9.85;;;;;;;-1.17;100.00;99950.00;5027837;28;20155;-75
2023/11/23 03:57:48;;;;;;;20.63;8.77;;;;;;;-1.20;100.00;99944.91;5042216;28;20045;-75
2023/11/23 04:00:14;;;;;;;22.38;8.55;;;;;;;-1.26;100.00;99945.28;5029218;28;20021;-75
2023/11/23 04:02:39;;;;;;;19.75;8.52;;;;;;;-1.34;100.00;99939.63;5044704;28;20275;-75
2023/11/23 04:05:05;;;;;;;23.45;9.80;;;;;;;-1.45;100.00;99928.88;5060247;28;20013;-76
2023/11/23 04:07:32;;;;;;;19.52;9.63;;;;;;;-1.55;100.00;99929.47;5044586;28;20018;-75
2023/11/23 04:09:57;;;;;;;19.35;9.13;;;;;;;-1.63;100.00;99937.03;5062328;28;20001;-76
2023/11/23 04:12:23;;;;;;;26.23;9.38;;;;;;;-1.64;100.00;99945.13;5051593;28;20029;-75
2023/11/23 04:14:48;;;;;;;27.40;10.82;;;;;;;-1.64;100.00;99927.41;5051455;28;20071;-76
2023/11/23 04:17:13;;;;;;;27.77;10.35;;;;;;;-1.51;100.00;99939.88;5034537;28;20255;-75
2023/11/23 04:19:38;;;;;;;27.75;11.40;;;;;;;-1.50;100.00;99946.88;5043488;28;20037;-76
2023/11/23 04:22:06;;;;;;;30.40;12.18;;;;;;;-1.49;100.00;99940.63;5018605;28;20029;-75
2023/11/23 04:24:33;;;;;;;35.38;12.77;;;;;;;-1.38;100.00;99946.09;5048954;28;20017;-75
2023/11/23 04:26:58;;;;;;;36.92;13.52;;;;;;;-1.43;100.00;99943.75;5056840;28;20016;-75
2023/11/23 04:29:24;;;;;;;34.00;12.93;;;;;;;-1.49;100.00;99933.53;5043624;28;20025;-75
2023/11/23 04:31:49;;;;;;;27.45;11.27;;;;;;;-1.63;100.00;99934.38;5043592;28;20072;-75
2023/11/23 04:34:14;;;;;;;25.98;10.88;;;;;;;-1.74;100.00;99938.69;5038758;28;20036;-75
2023/11/23 04:36:40;;;;;;;24.10;10.82;;;;;;;-1.82;100.00;99936.53;5024000;28;20030;-76
2023/11/23 04:39:05;;;;;;;26.65;11.52;;;;;;;-1.82;100.00;99939.19;5046877;28;20369;-76
2023/11/23 04:41:30;;;;;;;23.73;10.80;;;;;;;-1.91;100.00;99937.09;5036880;28;20025;-75
2023/11/23 04:43:56;;;;;;;28.55;12.18;;;;;;;-1.92;100.00;99927.44;5035798;28;20021;-76
2023/11/23 04:46:21;;;;;;;27.00;11.07;;;;;;;-1.87;100.00;99928.84;5041966;28;20072;-76
2023/11/23 04:48:47;;;;;;;27.30;12.40;;;;;;;-1.82;100.00;99926.75;5024702;28;20029;-76
2023/11/23 04:51:14;;;;;;;27.13;12.27;;;;;;;-1.72;100.00;99929.69;5025338;28;20226;-76
2023/11/23 04:53:39;;;;;;;33.58;13.20;;;;;;;-1.78;100.00;99928.28;5029007;28;20033;-77
2023/11/23 04:56:05;;;;;;;26.00;12.23;;;;;;;-1.71;100.00;99907.50;5043264;28;20035;-77
2023/11/23 04:58:31;;;;;;;23.85;10.27;;;;;;;-1.62;100.00;99928.16;5040357;28;20029;-79
2023/11/23 05:00:56;;;;;;;27.00;12.20;;;;;;;-1.61;100.00;99913.06;5043896;28;20242;-80
2023/11/23 05:03:21;;;;;;;28.55;11.43;;;;;;;-1.59;100.00;99916.50;5037417;28;20059;-80
2023/11/23 05:05:47;;;;;;;31.08;11.80;;;;;;;-1.64;100.00;99914.13;5013517;28;20307;-79
2023/11/23 05:08:12;;;;;;;26.95;11.90;;;;;;;-1.64;100.00;99916.78;5039431;28;20218;-79
2023/11/23 05:10:37;;;;;;;26.70;12.00;;;;;;;-1.64;100.00;99895.56;5048171;28;20025;-79
2023/11/23 05:13:03;;;;;;;25.88;11.52;;;;;;;-1.70;100.00;99903.91;5044982;28;20029;-80
2023/11/23 05:15:28;;;;;;;22.40;11.13;;;;;;;-1.64;100.00;99907.97;5031406;28;20028;-79
2023/11/23 05:17:53;;;;;;;28.95;12.68;;;;;;;-1.81;100.00;99899.31;5040999;28;20025;-78
2023/11/23 05:20:20;;;;;;;33.22;12.18;;;;;;;-1.77;100.00;99897.28;5051011;28;20028;-80
2023/11/23 05:22:45;;;;;;;26.30;11.80;;;;;;;-1.70;100.00;99906.56;5025754;28;20196;-75
2023/11/23 05:25:11;;;;;;;29.10;11.77;;;;;;;-1.80;100.00;99900.16;5042936;28;20066;-77
2023/11/23 05:27:36;;;;;;;28.02;12.80;;;;;;;-1.90;100.00;99901.69;5011523;28;20034;-75
2023/11/23 05:30:01;;;;;;;24.38;11.30;;;;;;;-1.85;100.00;99920.81;5033495;28;20116;-80
2023/11/23 05:32:26;;;;;;;28.98;11.95;;;;;;;-1.88;100.00;99911.25;5012687;28;20233;-80
2023/11/23 05:34:52;;;;;;;30.45;11.88;;;;;;;-1.80;100.00;99919.56;5025865;28;20036;-80
2023/11/23 05:37:17;;;;;;;30.45;11.77;;;;;;;-1.67;100.00;99924.09;5025910;28;20018;-78
2023/11/23 05:39:42;;;;;;;27.65;12.43;;;;;;;-1.71;100.00;99911.97;5022022;28;20096;-78
2023/11/23 05:42:08;;;;;;;29.92;13.38;;;;;;;-1.62;100.00;99935.28;5027031;28;20029;-79
2023/11/23 05:44:34;;;;;;;28.75;11.82;;;;;;;-1.60;100.00;99936.88;5042796;28;20020;-79
2023/11/23 05:46:59;;;;;;;24.38;11.18;;;;;;;-1.64;100.00;99930.03;5007973;28;20017;-78
2023/11/23 05:49:25;;;;;;;27.30;11.45;;;;;;;-1.74;100.00;99928.09;5025904;28;20029;-78
2023/11/23 05:51:51;;;;;;;28.95;11.27;;;;;;;-1.68;100.00;99946.25;5046759;28;20029;-77
2023/11/23 05:54:17;;;;;;;26.80;10.80;;;;;;;-1.70;100.00;99938.41;5046508;28;20028;-80
2023/11/23 05:56:43;;;;;;;29.95;11.88;;;;;;;-1.75;100.00;99929.03;5029995;28;20029;-78
2023/11/23 05:59:09;;;;;;;25.90;11.40;;;;;;;-1.72;100.00;99936.81;5044334;28;20277;-80
2023/11/23 06:01:35;;;;;;;24.08;11.10;;;;;;;-1.73;100.00;99932.44;5044259;28;20092;-78
2023/11/23 06:04:00;;;;;;;26.25;11.70;;;;;;;-1.72;100.00;99921.72;5026322;28;20075;-78
2023/11/23 06:06:26;;;;;;;28.58;11.88;;;;;;;-1.60;100.00;99930.69;5035299;28;20294;-78
2023/11/23 06:08:52;;;;;;;28.90;11.07;;;;;;;-1.47;100.00;99952.00;5014873;28;20037;-79
2023/11/23 06:11:18;;;;;;;28.60;11.98;;;;;;;-1.53;100.00;99915.25;5022686;28;20025;-79
2023/11/23 06:13:45;;;;;;;29.65;10.93;;;;;;;-1.32;100.00;99935.06;5024398;28;20022;-79
2023/11/23 06:16:11;;;;;;;26.80;11.45;;;;;;;-1.28;100.00;99925.97;5033000;28;20049;-81
2023/11/23 06:18:36;;;;;;;25.30;10.48;;;;;;;-1.22;100.00;99932.69;5031082;28;20021;-79
2023/11/23 06:21:18;;;;;;;29.05;10.88;;;;;;;-1.21;100.00;99932.56;5029659;28;20029;-78
2023/11/23 06:23:44;;;;;;;27.83;11.45;;;;;;;-1.30;100.00;99927.03;5009783;28;20040;-80
2023/11/23 06:26:10;;;;;;;25.33;10.70;;;;;;;-1.32;100.00;99929.75;5034098;28;20317;-79
2023/11/23 06:28:36;;;;;;;30.35;11.00;;;;;;;-1.33;100.00;99922.75;5030072;28;20048;-78
2023/11/23 06:31:01;;;;;;;27.27;11.23;;;;;;;-1.33;100.00;99933.38;5029867;28;20314;-79
2023/11/23 06:33:27;;;;;;;27.30;11.88;;;;;;;-1.37;100.00;99927.41;5039232;28;20030;-77
2023/11/23 06:35:54;;;;;;;31.50;11.55;;;;;;;-1.37;100.00;99931.88;5048488;28;20033;-78
2023/11/23 06:38:20;;;;;;;27.95;11.30;;;;;;;-1.44;100.00;99917.28;5031145;28;20033;-79
2023/11/23 06:40:47;;;;;;;32.92;12.32;;;;;;;-1.41;100.00;99930.38;5029620;28;20113;-80
2023/11/23 06:43:12;;;;;;;29.63;12.35;;;;;;;-1.35;100.00;99924.66;5037813;28;20029;-74
2023/11/23 06:45:38;;;;;;;28.77;12.07;;;;;;;-1.29;100.00;99921.59;5039551;28;20028;-74
2023/11/23 06:48:04;;;;;;;28.52;11.20;;;;;;;-1.20;100.00;99925.47;5044296;28;20052;-74
2023/11/23 06:50:29;;;;;;;29.45;11.88;;;;;;;-1.14;100.00;99925.91;5048076;28;20024;-75
2023/11/23 06:52:55;;;;;;;31.10;11.77;;;;;;;-1.09;100.00;99916.78;5047508;28;20095;-74
2023/11/23 06:55:20;;;;;;;25.45;11.25;;;;;;;-1.06;100.00;99909.47;5039122;28;20025;-80
2023/11/23 06:57:48;;;;;;;30.13;12.13;;;;;;;-1.01;100.00;99906.50;5032780;28;20222;-74
2023/11/23 07:00:22;;;;;;;29.10;11.35;;;;;;;-0.85;100.00;99914.28;5044606;28;20368;-74
2023/11/23 07:02:49;;;;;;;28.58;11.45;;;;;;;-0.86;100.00;99905.47;5043983;28;20060;-74
2023/11/23 07:05:15;;;;;;;26.13;11.18;;;;;;;-0.81;100.00;99902.50;5036994;28;20018;-74
2023/11/23 07:07:40;;;;;;;28.52;11.10;;;;;;;-0.77;100.00;99896.03;5044560;28;20380;-74
2023/11/23 07:10:06;;;;;;;27.77;11.05;;;;;;;-0.72;100.00;99904.53;5023216;28;20018;-74
2023/11/23 07:12:31;;;;;;;28.25;11.02;;;;;;;-0.60;100.00;99897.50;5022688;28;20273;-74
2023/11/23 07:14:57;;;;;;;28.95;11.48;;;;;;;-0.55;100.00;99888.28;5040679;28;20085;-74
2023/11/23 07:17:22;;;;;;;38.53;12.88;;;;;;;-0.32;100.00;99888.50;5040441;28;20229;-74
2023/11/23 07:19:47;;;;;;;32.38;12.73;;;;;;;0.07;100.00;99895.47;5039869;28;20060;-74
2023/11/23 07:22:12;;;;;;;24.35;11.02;;;;;;;0.35;100.00;99883.69;5023328;28;20017;-73
2023/11/23 07:24:38;;;;;;;24.00;10.52;;;;;;;0.33;100.00;99885.59;5042392;28;20017;-74
2023/11/23 07:27:03;;;;;;;22.63;9.50;;;;;;;0.36;100.00;99889.84;5037219;28;20040;-79
2023/11/23 07:29:29;;;;;;;23.42;10.30;;;;;;;0.28;100.00;99874.44;5030317;28;20093;-80
2023/11/23 07:31:54;;;;;;;22.02;9.45;;;;;;;0.36;100.00;99882.69;5062572;28;20100;-80
2023/11/23 07:34:19;;;;;;;20.80;8.70;;;;;;;0.43;100.00;99889.28;5063575;28;20024;-81
2023/11/23 07:36:45;;;;;;;23.38;9.93;;;;;;;0.40;100.00;99883.34;5065013;28;20021;-81
2023/11/23 07:39:10;;;;;;;24.48;9.52;;;;;;;0.48;100.00;99865.00;5058225;28;20043;-81
2023/11/23 07:41:36;;;;;;;17.27;8.45;;;;;;;0.71;100.00;99878.41;5045448;28;20017;-80
2023/11/23 07:44:02;;;;;;;18.42;7.75;;;;;;;0.94;100.00;99879.34;5043360;28;20211;-78
2023/11/23 07:46:28;;;;;;;19.95;8.18;;;;;;;1.28;100.00;99864.31;5051862;28;20020;-79
2023/11/23 07:48:53;;;;;;;15.00;7.18;;;;;;;1.67;100.00;99860.34;5048804;28;20338;-81
2023/11/23 07:51:19;;;;;;;18.23;8.55;;;;;;;1.74;100.00;99869.59;5052506;28;20033;-77
2023/11/23 07:53:44;;;;;;;16.70;8.35;;;;;;;1.67;100.00;99868.34;5044192;28;20021;-78
2023/11/23 07:56:13;;;;;;;18.92;7.45;;;;;;;1.88;100.00;99867.66;5030292;28;20109;-79
2023/11/23 07:58:38;;;;;;;17.00;7.43;;;;;;;2.00;100.00;99865.84;5039819;28;20029;-80
2023/11/23 08:01:03;;;;;;;16.73;7.97;;;;;;;2.13;100.00;99851.38;5024564;28;20092;-78
2023/11/23 08:03:29;;;;;;;15.40;6.95;;;;;;;2.54;100.00;99860.53;5038244;28;20025;-75
2023/11/23 08:05:55;;;;;;;14.05;6.45;;;;;;;2.68;100.00;99855.84;5043081;28;20025;-76
2023/11/23 08:08:21;;;;;;;13.77;6.72;;;;;;;2.86;100.00;99870.38;5042503;28;20314;-76
2023/11/23 08:10:46;;;;;;;13.48;7.18;;;;;;;2.69;100.00;99871.75;5052669;28;20210;-76
2023/11/23 08:13:14;;;;;;;12.05;6.55;;;;;;;2.66;100.00;99860.47;5018543;28;20018;-76
2023/11/23 08:15:40;;;;;;;13.02;6.97;;;;;;;2.58;100.00;99869.13;5043850;28;20214;-81
2023/11/23 08:18:06;;;;;;;17.70;7.70;;;;;;;2.77;100.00;99868.44;5027355;28;20088;-81
2023/11/23 08:20:32;;;;;;;14.23;6.40;;;;;;;2.92;100.00;99875.19;5033186;28;20056;-81
2023/11/23 08:22:57;;;;;;;14.35;5.90;;;;;;;2.93;100.00;99873.34;5034054;28;20021;-81
2023/11/23 08:25:23;;;;;;;12.45;6.70;;;;;;;2.88;100.00;99864.88;5043036;28;20044;-76
2023/11/23 08:28:10;;;;;;;16.00;6.20;;;;;;;2.45;100.00;99815.00;5045016;28;20005;-84
2023/11/23 08:30:36;;;;;;;12.90;6.35;;;;;;;2.58;100.00;99847.75;5056800;28;20033;-76
2023/11/23 08:33:01;;;;;;;15.55;6.60;;;;;;;2.70;100.00;99873.47;5035630;28;20018;-81
2023/11/23 08:35:44;;;;;;;13.77;6.45;;;;;;;2.80;100.00;99868.19;5068365;22;20048;-58
2023/11/23 08:38:11;;;;;;;19.50;7.00;;;;;;;2.97;100.00;99864.13;5058843;28;20030;-63
2023/11/23 08:40:37;;;;;;;12.57;6.43;;;;;;;3.24;100.00;99856.41;5040916;28;20043;-62
2023/11/23 08:43:04;;;;;;;12.55;6.68;;;;;;;3.50;100.00;99856.88;5049801;28;20020;-62
2023/11/23 08:45:30;;;;;;;14.23;7.53;;;;;;;3.34;100.00;99858.31;5054710;28;20108;-62
2023/11/23 08:47:55;;;;;;;12.98;6.13;;;;;;;3.48;100.00;99852.63;5055611;28;20048;-63
2023/11/23 08:50:21;;;;;;;15.48;7.07;;;;;;;3.36;100.00;99846.53;5047338;28;20024;-62
2023/11/23 08:52:46;;;;;;;14.05;7.07;;;;;;;3.32;100.00;99842.41;5039497;28;20044;-62
2023/11/23 08:55:12;;;;;;;17.10;7.28;;;;;;;3.33;100.00;99851.25;5041727;28;20021;-57
2023/11/23 08:57:40;;;;;;;19.27;7.47;;;;;;;3.22;100.00;99847.72;5039785;28;20082;-57
2023/11/23 09:00:11;;;;;;;18.85;6.50;;;;;;;3.29;100.00;99842.66;5050621;28;20024;-57
2023/11/23 09:02:37;;;;;;;11.95;5.72;;;;;;;3.38;100.00;99841.88;5043767;28;20033;-57
2023/11/23 09:05:09;;;;;;;11.45;5.47;;;;;;;3.51;100.00;99841.66;5043519;28;20039;-57
2023/11/23 09:07:34;;;;;;;10.27;4.95;;;;;;;3.63;100.00;99837.91;5051406;28;20029;-57
2023/11/23 09:09:59;;;;;;;9.57;5.10;;;;;;;3.58;100.00;99841.97;5046358;28;20026;-57
2023/11/23 09:12:27;;;;;;;11.65;5.72;;;;;;;3.58;100.00;99837.47;5044800;28;20498;-57
2023/11/23 09:14:56;;;;;;;9.75;5.32;;;;;;;3.45;100.00;99828.81;5049348;28;20055;-57
2023/11/23 09:17:22;;;;;;;9.82;4.82;;;;;;;3.58;100.00;99831.28;5055129;28;20033;-70
2023/11/23 09:19:47;;;;;;;10.95;5.20;;;;;;;3.56;100.00;99826.06;5052386;28;20467;-59
2023/11/23 09:22:13;;;;;;;10.98;5.32;;;;;;;3.58;100.00;99824.09;5045429;28;20495;-63
2023/11/23 09:24:38;;;;;;;9.68;5.00;;;;;;;3.58;100.00;99824.09;5048222;28;20029;-63
2023/11/23 09:27:06;;;;;;;10.55;4.97;;;;;;;3.55;100.00;99820.84;5047190;28;20028;-63
2023/11/23 09:29:31;;;;;;;9.77;4.90;;;;;;;3.60;100.00;99816.78;5054351;28;20024;-56
2023/11/23 09:31:57;;;;;;;12.60;5.47;;;;;;;3.68;100.00;99816.97;5051956;28;20028;-57
2023/11/23 09:34:23;;;;;;;12.73;4.90;;;;;;;3.64;100.00;99798.63;5054146;28;20047;-57
2023/11/23 09:36:49;;;;;;;11.70;5.40;;;;;;;3.67;100.00;99796.53;5047688;28;20468;-56
2023/11/23 09:39:17;;;;;;;10.75;5.07;;;;;;;3.78;100.00;99794.75;5048394;28;20029;-56
2023/11/23 09:41:43;;;;;;;12.38;4.82;;;;;;;3.70;100.00;99790.91;5046067;28;20028;-57
2023/11/23 09:44:09;;;;;;;8.57;4.55;;;;;;;3.71;100.00;99789.91;5049873;28;20016;-57
2023/11/23 09:46:38;;;;;;;11.75;5.22;;;;;;;3.78;100.00;99782.22;5046277;28;20027;-56
2023/11/23 09:49:07;;;;;;;8.25;4.43;;;;;;;3.80;100.00;99784.75;5042555;28;20032;-56
2023/11/23 09:51:35;;;;;;;;;;;;;;;3.77;100.00;99776.97;5048948;28;20705;-56
2023/11/23 09:54:01;;;;;;;11.75;4.40;;;;;;;3.82;100.00;99769.41;5056762;28;21717;-56
2023/11/23 09:56:27;;;;;;;10.82;4.90;;;;;;;3.86;100.00;99762.81;5058304;28;20033;-56
2023/11/23 09:58:52;;;;;;;10.00;5.03;;;;;;;3.80;100.00;99763.31;5058327;28;20031;-62
2023/11/23 10:01:18;;;;;;;12.90;4.93;;;;;;;3.89;100.00;99754.50;5048694;28;20506;-56
2023/11/23 10:03:52;;;;;;;9.63;4.40;;;;;;;3.97;100.00;99757.31;5043411;28;20389;-57
2023/11/23 10:06:17;;;;;;;11.70;5.03;;;;;;;3.89;100.00;99759.84;5043183;28;20377;-62
2023/11/23 10:08:43;;;;;;;10.00;4.75;;;;;;;3.99;100.00;99758.03;5048545;28;20028;-56
2023/11/23 10:11:09;;;;;;;10.23;5.07;;;;;;;4.07;100.00;99755.50;5046943;28;20029;-62
2023/11/23 10:13:34;;;;;;;7.50;4.60;;;;;;;3.98;100.00;99759.00;5051056;28;20024;-63
2023/11/23 10:16:00;;;;;;;10.18;5.00;;;;;;;4.06;100.00;99742.25;5049854;28;20535;-62
2023/11/23 10:18:37;;;;;;;12.65;5.20;;;;;;;4.22;100.00;99739.03;5049220;28;20024;-62
2023/11/23 10:21:04;;;;;;;9.77;4.65;;;;;;;4.42;100.00;99746.09;5051122;28;20033;-62
2023/11/23 10:23:30;;;;;;;13.63;5.45;;;;;;;4.63;100.00;99747.78;5047734;28;20119;-63
2023/11/23 10:25:56;;;;;;;8.85;5.05;;;;;;;4.57;100.00;99739.31;5058063;28;20032;-62
2023/11/23 10:28:22;;;;;;;10.52;5.72;;;;;;;4.57;100.00;99728.59;5059165;28;20185;-60
2023/11/23 10:30:49;;;;;;;11.18;5.22;;;;;;;4.60;100.00;99720.28;5054769;28;20472;-62
2023/11/23 10:33:16;;;;;;;11.02;5.35;;;;;;;4.92;100.00;99721.78;5051113;28;20105;-62
2023/11/23 10:35:45;;;;;;;10.95;5.38;;;;;;;4.98;100.00;99715.84;5066502;28;20033;-63
2023/11/23 10:38:13;;;;;;;17.08;8.45;;;;;;;5.21;100.00;99711.00;5048653;28;20028;-62
2023/11/23 10:40:39;;;;;;;13.98;6.15;;;;;;;5.37;100.00;99712.19;5049314;28;20059;-62
2023/11/23 10:43:09;;;;;;;11.15;5.50;;;;;;;5.41;100.00;99708.22;5057748;28;20428;-63
2023/11/23 10:45:35;;;;;;;;;;;;;;;5.67;100.00;99705.69;5061065;28;20035;-62
2023/11/23 10:48:02;;;;;;;11.43;5.57;;;;;;;5.67;100.00;99705.69;5040650;28;19936;-60
2023/11/23 10:50:29;;;;;;;13.98;5.82;;;;;;;5.55;100.00;99701.50;5043644;28;20083;-60
2023/11/23 10:52:58;;;;;;;10.50;5.35;;;;;;;5.49;100.00;99698.41;5048150;28;20021;-60
2023/11/23 10:55:26;;;;;;;;;;;;;;;5.55;100.00;99699.66;5038594;28;20091;-60
2023/11/23 10:57:57;;;;;;;13.20;5.63;;;;;;;5.61;100.00;99695.56;5057171;28;19913;-60
2023/11/23 11:00:25;;;;;;;10.73;5.05;;;;;;;5.81;100.00;99690.91;5041413;28;20439;-60
2023/11/23 11:02:54;;;;;;;13.95;6.50;;;;;;;5.66;100.00;99685.22;5044851;28;20029;-54
2023/11/23 11:05:45;;;;;;;9.90;5.53;;;;;;;5.77;100.00;99682.31;5055669;28;20444;-54
2023/11/23 11:08:17;;;;;;;9.52;5.13;;;;;;;5.77;100.00;99666.19;5050804;28;20528;-54
2023/11/23 11:10:42;;;;;;;10.85;5.10;;;;;;;6.06;100.00;99673.25;5050104;28;20029;-60
2023/11/23 11:13:12;;;;;;;12.40;5.20;;;;;;;6.05;100.00;99658.97;5054453;28;20036;-54